createdAt,value
2017-08-05T00:00:22.694Z,16.90
2017-08-05T00:02:50.192Z,17.00
2017-08-05T00:05:17.709Z,16.90
2017-08-05T00:07:46.025Z,16.80
2017-08-05T00:10:13.506Z,16.80
2017-08-05T00:12:41.013Z,16.70
2017-08-05T00:15:08.494Z,16.70
2017-08-05T00:17:36.796Z,16.70
2017-08-05T00:20:04.337Z,16.60
2017-08-05T00:22:31.837Z,16.70
2017-08-05T00:24:59.344Z,16.70
2017-08-05T00:27:26.860Z,16.70
2017-08-05T00:29:54.344Z,16.90
2017-08-05T00:32:21.876Z,17.00
2017-08-05T00:34:49.397Z,17.00
2017-08-05T00:37:16.941Z,17.00
2017-08-05T00:39:44.500Z,17.00
2017-08-05T00:42:12.017Z,16.90
2017-08-05T00:44:39.506Z,17.00
2017-08-05T00:47:06.992Z,16.90
2017-08-05T00:49:35.276Z,16.80
2017-08-05T00:52:02.765Z,16.80
2017-08-05T00:54:30.365Z,16.90
2017-08-05T00:56:57.930Z,16.90
2017-08-05T00:59:25.453Z,17.10
2017-08-05T01:01:52.936Z,17.20
2017-08-05T01:04:20.536Z,17.20
2017-08-05T01:06:48.107Z,17.10
2017-08-05T01:09:15.608Z,17.10
2017-08-05T01:11:43.867Z,17.10
2017-08-05T01:14:11.429Z,17.10
2017-08-05T01:16:38.973Z,17.20
2017-08-05T01:19:06.449Z,17.20
2017-08-05T01:21:34.057Z,17.10
2017-08-05T01:24:01.604Z,17.20
2017-08-05T01:26:29.149Z,17.30
2017-08-05T01:28:56.697Z,17.40
2017-08-05T01:31:24.209Z,17.50
2017-08-05T01:33:52.461Z,17.60
2017-08-05T01:36:19.967Z,17.60
2017-08-05T01:38:47.461Z,17.60
2017-08-05T01:41:15.030Z,17.50
2017-08-05T01:43:42.517Z,17.50
2017-08-05T01:46:10.026Z,17.50
2017-08-05T01:48:37.509Z,17.50
2017-08-05T01:51:05.098Z,17.50
2017-08-05T01:53:32.645Z,17.50
2017-08-05T01:56:00.133Z,17.50
2017-08-05T01:58:27.646Z,17.50
2017-08-05T02:00:55.146Z,17.50
2017-08-05T02:03:23.413Z,17.40
2017-08-05T02:05:51.697Z,17.30
2017-08-05T02:08:19.278Z,17.30
2017-08-05T02:10:46.913Z,17.30
2017-08-05T02:13:14.429Z,17.30
2017-08-05T02:15:41.918Z,17.20
2017-08-05T02:18:09.518Z,17.10
2017-08-05T02:20:37.161Z,17.10
2017-08-05T02:23:04.686Z,17.10
2017-08-05T02:25:32.993Z,17.10
2017-08-05T02:28:00.534Z,17.10
2017-08-05T02:30:28.045Z,17.00
2017-08-05T02:32:55.601Z,17.00
2017-08-05T02:35:23.146Z,17.00
2017-08-05T02:37:50.639Z,17.00
2017-08-05T02:40:18.228Z,17.00
2017-08-05T02:42:45.740Z,17.00
2017-08-05T02:45:13.318Z,17.00
2017-08-05T02:47:40.809Z,17.00
2017-08-05T02:50:08.349Z,17.00
2017-08-05T02:52:35.893Z,17.00
2017-08-05T02:55:03.377Z,17.00
2017-08-05T02:57:31.657Z,17.10
2017-08-05T02:59:59.304Z,17.10
2017-08-05T03:02:26.854Z,17.10
2017-08-05T03:04:54.341Z,17.10
2017-08-05T03:07:21.937Z,17.00
2017-08-05T03:09:49.498Z,16.90
2017-08-05T03:12:17.125Z,16.90
2017-08-05T03:14:44.617Z,16.90
2017-08-05T03:17:12.237Z,16.90
2017-08-05T03:19:39.737Z,16.80
2017-08-05T03:22:08.014Z,16.80
2017-08-05T03:24:35.517Z,16.80
2017-08-05T03:27:03.009Z,16.90
2017-08-05T03:29:30.618Z,16.90
2017-08-05T03:31:58.912Z,16.90
2017-08-05T03:34:26.429Z,16.80
2017-08-05T03:36:54.677Z,16.90
2017-08-05T03:39:22.253Z,16.90
2017-08-05T03:41:49.753Z,16.90
2017-08-05T03:44:17.290Z,16.90
2017-08-05T03:46:44.805Z,16.80
2017-08-05T03:49:12.290Z,16.80
2017-08-05T03:51:39.874Z,16.80
2017-08-05T03:54:07.421Z,16.80
2017-08-05T03:56:34.965Z,16.90
2017-08-05T03:59:02.462Z,16.90
2017-08-05T04:01:29.968Z,16.90
2017-08-05T04:03:57.493Z,16.80
2017-08-05T04:06:25.038Z,16.80
2017-08-05T04:08:52.592Z,16.80
2017-08-05T04:11:20.077Z,16.90
2017-08-05T04:13:47.778Z,16.80
2017-08-05T04:16:15.321Z,16.90
2017-08-05T04:18:42.830Z,17.00
2017-08-05T04:21:11.081Z,17.00
2017-08-05T04:23:38.582Z,17.00
2017-08-05T04:26:06.131Z,17.00
2017-08-05T04:28:33.652Z,17.00
2017-08-05T04:31:01.217Z,17.10
2017-08-05T04:33:28.745Z,17.00
2017-08-05T04:35:56.295Z,17.00
2017-08-05T04:38:23.813Z,17.00
2017-08-05T04:40:51.369Z,17.00
2017-08-05T04:43:18.982Z,17.00
2017-08-05T04:45:46.492Z,16.90
2017-08-05T04:48:14.001Z,17.00
2017-08-05T04:50:41.582Z,17.00
2017-08-05T04:53:09.088Z,16.90
2017-08-05T04:55:36.633Z,16.90
2017-08-05T04:58:04.177Z,17.00
2017-08-05T05:00:31.730Z,17.00
2017-08-05T05:02:59.282Z,17.00
2017-08-05T05:05:26.813Z,17.00
2017-08-05T05:07:54.360Z,17.00
2017-08-05T05:10:21.898Z,16.90
2017-08-05T05:12:49.388Z,16.90
2017-08-05T05:15:16.897Z,16.80
2017-08-05T05:17:44.531Z,16.80
2017-08-05T05:20:12.077Z,16.90
2017-08-05T05:22:39.621Z,16.90
2017-08-05T05:25:07.161Z,17.00
2017-08-05T05:27:34.661Z,17.00
2017-08-05T05:30:02.148Z,17.00
2017-08-05T05:32:29.665Z,17.00
2017-08-05T05:34:57.922Z,16.90
2017-08-05T05:37:25.597Z,16.90
2017-08-05T05:39:53.085Z,16.90
2017-08-05T05:42:20.685Z,16.90
2017-08-05T05:44:48.256Z,17.00
2017-08-05T05:47:15.781Z,16.90
2017-08-05T05:49:43.271Z,16.80
2017-08-05T05:52:10.863Z,16.80
2017-08-05T05:54:38.406Z,16.90
2017-08-05T05:57:05.950Z,16.90
2017-08-05T05:59:33.493Z,17.00
2017-08-05T06:02:00.985Z,17.00
2017-08-05T06:04:28.494Z,16.90
2017-08-05T06:06:55.988Z,16.80
2017-08-05T06:09:23.568Z,16.80
2017-08-05T06:11:51.113Z,16.80
2017-08-05T06:14:18.602Z,16.70
2017-08-05T06:16:46.105Z,16.70
2017-08-05T06:19:13.597Z,16.60
2017-08-05T06:21:41.109Z,16.50
2017-08-05T06:24:08.628Z,16.50
2017-08-05T06:26:36.128Z,16.50
2017-08-05T06:29:03.713Z,16.50
2017-08-05T06:31:31.283Z,16.40
2017-08-05T06:33:58.805Z,16.40
2017-08-05T06:36:26.354Z,16.40
2017-08-05T06:38:53.993Z,16.40
2017-08-05T06:41:21.541Z,16.40
2017-08-05T06:43:49.085Z,16.40
2017-08-05T06:46:16.587Z,16.40
2017-08-05T06:48:44.300Z,16.40
2017-08-05T06:51:11.786Z,16.40
2017-08-05T06:53:40.078Z,16.40
2017-08-05T06:56:07.590Z,16.40
2017-08-05T06:58:35.919Z,16.40
2017-08-05T07:01:03.403Z,16.40
2017-08-05T07:03:31.677Z,16.50
2017-08-05T07:05:59.213Z,16.40
2017-08-05T07:08:27.621Z,16.50
2017-08-05T07:10:55.241Z,16.50
2017-08-05T07:13:22.784Z,16.50
2017-08-05T07:15:50.329Z,16.50
2017-08-05T07:18:17.872Z,16.40
2017-08-05T07:20:45.380Z,16.50
2017-08-05T07:23:12.865Z,16.60
2017-08-05T07:25:40.369Z,16.60
2017-08-05T07:28:08.621Z,16.80
2017-08-05T07:30:36.205Z,16.80
2017-08-05T07:33:03.721Z,16.80
2017-08-05T07:35:31.390Z,16.80
2017-08-05T07:37:58.941Z,16.80
2017-08-05T07:40:26.457Z,16.80
2017-08-05T07:42:54.748Z,16.90
2017-08-05T07:45:22.261Z,16.80
2017-08-05T07:47:50.553Z,16.90
2017-08-05T07:50:18.180Z,16.90
2017-08-05T07:52:45.741Z,16.90
2017-08-05T07:55:13.285Z,16.90
2017-08-05T07:57:40.829Z,16.90
2017-08-05T08:00:08.314Z,16.90
2017-08-05T08:02:35.874Z,16.90
2017-08-05T08:05:03.449Z,16.80
2017-08-05T08:07:31.052Z,16.80
2017-08-05T08:09:58.739Z,16.90
2017-08-05T08:12:26.290Z,17.00
2017-08-05T08:14:53.782Z,17.00
2017-08-05T08:17:21.325Z,17.10
2017-08-05T08:19:48.849Z,17.20
2017-08-05T08:22:16.350Z,17.20
2017-08-05T08:24:44.622Z,17.50
2017-08-05T08:27:12.178Z,17.40
2017-08-05T08:29:39.717Z,17.60
2017-08-05T08:32:07.272Z,17.80
2017-08-05T08:34:34.818Z,18.00
2017-08-05T08:37:02.774Z,18.10
2017-08-05T08:39:30.911Z,18.40
2017-08-05T08:41:58.696Z,18.40
2017-08-05T08:44:27.018Z,18.20
2017-08-05T08:46:54.525Z,18.20
2017-08-05T08:49:22.025Z,18.00
2017-08-05T08:51:49.701Z,17.80
2017-08-05T08:54:17.323Z,17.80
2017-08-05T08:56:44.833Z,17.70
2017-08-05T08:59:13.118Z,17.90
2017-08-05T09:01:40.657Z,17.80
2017-08-05T09:04:08.204Z,17.90
2017-08-05T09:06:36.176Z,17.60
2017-08-05T09:09:03.826Z,17.50
2017-08-05T09:11:31.365Z,17.30
2017-08-05T09:13:58.933Z,17.20
2017-08-05T09:16:26.469Z,17.10
2017-08-05T09:18:53.957Z,17.10
2017-08-05T09:21:22.293Z,17.40
2017-08-05T09:23:49.825Z,17.40
2017-08-05T09:26:17.366Z,17.50
2017-08-05T09:28:45.688Z,17.40
2017-08-05T09:31:13.197Z,17.40
2017-08-05T09:33:40.777Z,17.20
2017-08-05T09:36:08.320Z,17.20
2017-08-05T09:38:35.809Z,17.30
2017-08-05T09:41:03.314Z,17.40
2017-08-05T09:43:30.810Z,17.50
2017-08-05T09:45:58.397Z,17.50
2017-08-05T09:48:25.885Z,17.60
2017-08-05T09:50:53.485Z,17.60
2017-08-05T09:53:20.973Z,17.60
2017-08-05T09:55:48.496Z,17.60
2017-08-05T09:58:16.032Z,17.60
2017-08-05T10:00:43.557Z,17.60
2017-08-05T10:03:11.066Z,17.50
2017-08-05T10:05:39.321Z,17.50
2017-08-05T10:08:06.904Z,17.50
2017-08-05T10:10:34.453Z,17.50
2017-08-05T10:13:02.000Z,17.60
2017-08-05T10:15:29.556Z,17.90
2017-08-05T10:17:57.090Z,18.00
2017-08-05T10:20:24.585Z,17.80
2017-08-05T10:22:52.093Z,18.20
2017-08-05T10:25:19.615Z,18.30
2017-08-05T10:27:47.170Z,18.60
2017-08-05T10:30:14.665Z,18.80
2017-08-05T10:32:42.247Z,18.60
2017-08-05T10:35:09.737Z,18.50
2017-08-05T10:37:37.241Z,18.70
2017-08-05T10:40:04.777Z,18.70
2017-08-05T10:42:32.323Z,18.60
2017-08-05T10:44:59.874Z,18.70
2017-08-05T10:47:27.409Z,19.10
2017-08-05T10:49:54.907Z,19.30
2017-08-05T10:52:22.409Z,19.80
2017-08-05T10:54:49.942Z,20.20
2017-08-05T10:57:17.481Z,19.80
2017-08-05T10:59:44.970Z,19.60
2017-08-05T11:02:12.565Z,19.30
2017-08-05T11:04:40.113Z,19.20
2017-08-05T11:07:07.633Z,19.20
2017-08-05T11:09:35.885Z,19.40
2017-08-05T11:12:04.199Z,19.70
2017-08-05T11:14:31.720Z,19.70
2017-08-05T11:16:59.286Z,20.10
2017-08-05T11:19:26.793Z,20.40
2017-08-05T11:21:55.173Z,21.80
2017-08-05T11:24:22.721Z,21.70
2017-08-05T11:26:50.213Z,21.40
2017-08-05T11:29:17.736Z,21.40
2017-08-05T11:31:45.352Z,21.70
2017-08-05T11:34:12.857Z,21.50
2017-08-05T11:36:41.253Z,22.10
2017-08-05T11:39:08.753Z,22.10
2017-08-05T11:41:36.343Z,21.70
2017-08-05T11:44:03.910Z,21.60
2017-08-05T11:46:31.447Z,21.80
2017-08-05T11:48:58.981Z,21.90
2017-08-05T11:51:26.472Z,21.50
2017-08-05T11:53:53.980Z,21.10
2017-08-05T11:56:21.509Z,20.80
2017-08-05T11:58:49.017Z,21.00
2017-08-05T12:01:17.334Z,24.00
2017-08-05T12:03:44.878Z,23.90
2017-08-05T12:06:12.361Z,24.20
2017-08-05T12:08:39.940Z,23.40
2017-08-05T12:11:07.431Z,23.60
2017-08-05T12:13:34.939Z,22.50
2017-08-05T12:16:02.490Z,22.40
2017-08-05T12:18:30.024Z,21.80
2017-08-05T12:20:57.637Z,21.50
2017-08-05T12:23:25.125Z,21.30
2017-08-05T12:25:52.721Z,21.50
2017-08-05T12:28:20.209Z,21.00
2017-08-05T12:30:47.813Z,20.50
2017-08-05T12:33:15.366Z,20.40
2017-08-05T12:35:42.904Z,20.60
2017-08-05T12:38:10.393Z,21.00
2017-08-05T12:40:37.901Z,22.80
2017-08-05T12:43:05.455Z,23.60
2017-08-05T12:45:32.977Z,23.60
2017-08-05T12:48:00.521Z,22.80
2017-08-05T12:50:28.026Z,22.40
2017-08-05T12:52:55.605Z,21.80
2017-08-05T12:55:23.154Z,21.70
2017-08-05T12:57:50.694Z,23.10
2017-08-05T13:00:18.217Z,23.20
2017-08-05T13:02:46.522Z,25.00
2017-08-05T13:05:14.042Z,25.00
2017-08-05T13:07:41.597Z,24.60
2017-08-05T13:10:09.106Z,23.80
2017-08-05T13:12:37.361Z,22.90
2017-08-05T13:15:05.653Z,22.10
2017-08-05T13:17:33.225Z,22.10
2017-08-05T13:20:00.742Z,22.10
2017-08-05T13:22:28.244Z,21.80
2017-08-05T13:24:55.728Z,21.90
2017-08-05T13:27:23.233Z,21.70
2017-08-05T13:29:50.717Z,21.80
2017-08-05T13:32:18.268Z,22.10
2017-08-05T13:34:45.925Z,22.30
2017-08-05T13:37:13.553Z,22.50
2017-08-05T13:39:41.092Z,23.60
2017-08-05T13:42:08.597Z,24.30
2017-08-05T13:44:36.181Z,25.20
2017-08-05T13:47:03.730Z,24.60
2017-08-05T13:49:31.293Z,24.30
2017-08-05T13:51:58.797Z,24.30
2017-08-05T13:54:26.319Z,24.00
2017-08-05T13:56:53.836Z,23.70
2017-08-05T13:59:22.121Z,23.20
2017-08-05T14:01:49.635Z,23.20
2017-08-05T14:04:18.034Z,23.70
2017-08-05T14:06:45.531Z,23.70
2017-08-05T14:09:13.117Z,23.70
2017-08-05T14:11:40.605Z,23.50
2017-08-05T14:14:08.146Z,23.20
2017-08-05T14:16:36.087Z,22.80
2017-08-05T14:19:03.593Z,22.30
2017-08-05T14:21:31.080Z,22.10
2017-08-05T14:23:58.611Z,21.90
2017-08-05T14:26:26.099Z,21.60
2017-08-05T14:28:54.393Z,21.40
2017-08-05T14:31:22.042Z,21.30
2017-08-05T14:33:49.588Z,21.00
2017-08-05T14:36:17.081Z,20.60
2017-08-05T14:38:44.602Z,20.00
2017-08-05T14:41:12.120Z,19.50
2017-08-05T14:43:39.664Z,19.10
2017-08-05T14:46:07.178Z,19.00
2017-08-05T14:48:35.429Z,18.80
2017-08-05T14:51:03.703Z,18.60
2017-08-05T14:53:31.294Z,18.60
2017-08-05T14:55:58.829Z,18.70
2017-08-05T14:58:26.380Z,18.60
2017-08-05T15:00:53.918Z,18.50
2017-08-05T15:03:21.409Z,18.40
2017-08-05T15:05:49.773Z,18.30
2017-08-05T15:08:17.261Z,18.40
2017-08-05T15:10:44.773Z,18.30
2017-08-05T15:13:13.177Z,18.30
2017-08-05T15:15:40.717Z,18.30
2017-08-05T15:18:08.208Z,18.30
2017-08-05T15:20:35.815Z,18.40
2017-08-05T15:23:03.353Z,18.40
2017-08-05T15:25:30.892Z,18.40
2017-08-05T15:27:58.398Z,18.50
2017-08-05T15:30:25.897Z,18.50
2017-08-05T15:32:53.421Z,18.50
2017-08-05T15:35:20.909Z,18.70
2017-08-05T15:37:48.513Z,18.70
2017-08-05T15:40:16.019Z,18.80
2017-08-05T15:42:43.596Z,18.80
2017-08-05T15:45:11.141Z,18.80
2017-08-05T15:47:38.711Z,18.90
2017-08-05T15:50:06.234Z,19.10
2017-08-05T15:52:33.742Z,19.10
2017-08-05T15:55:01.227Z,19.20
2017-08-05T15:57:28.782Z,19.20
2017-08-05T15:59:56.266Z,19.40
2017-08-05T16:02:23.861Z,19.50
2017-08-05T16:04:51.345Z,19.60
2017-08-05T16:07:18.866Z,19.50
2017-08-05T16:09:46.390Z,19.50
2017-08-05T16:12:13.898Z,19.70
2017-08-05T16:14:41.415Z,19.90
2017-08-05T16:17:08.926Z,20.10
2017-08-05T16:19:36.437Z,20.30
2017-08-05T16:22:03.951Z,20.30
2017-08-05T16:24:31.557Z,20.30
2017-08-05T16:26:59.103Z,20.20
2017-08-05T16:29:26.614Z,20.20
2017-08-05T16:31:54.909Z,20.30
2017-08-05T16:34:24.469Z,20.30
2017-08-05T16:36:52.729Z,20.20
2017-08-05T16:39:21.017Z,20.00
2017-08-05T16:41:48.590Z,20.00
2017-08-05T16:44:16.103Z,19.90
2017-08-05T16:46:43.653Z,19.90
2017-08-05T16:49:11.169Z,19.80
2017-08-05T16:51:38.697Z,19.70
2017-08-05T16:54:06.956Z,19.80
2017-08-05T16:56:35.253Z,19.80
2017-08-05T16:59:02.783Z,19.80
2017-08-05T17:01:30.303Z,19.70
2017-08-05T17:03:58.565Z,19.70
2017-08-05T17:06:26.837Z,19.70
2017-08-05T17:08:54.385Z,19.70
2017-08-05T17:11:21.893Z,19.70
2017-08-05T17:13:50.171Z,19.60
2017-08-05T17:16:17.736Z,19.60
2017-08-05T17:18:45.233Z,19.60
2017-08-05T17:21:12.741Z,19.70
2017-08-05T17:23:40.333Z,19.80
2017-08-05T17:26:07.883Z,20.00
2017-08-05T17:28:35.427Z,20.00
2017-08-05T17:31:02.970Z,20.00
2017-08-05T17:33:30.485Z,19.90
2017-08-05T17:35:58.733Z,19.60
2017-08-05T17:38:26.265Z,19.60
2017-08-05T17:40:53.973Z,19.50
2017-08-05T17:43:21.505Z,19.30
2017-08-05T17:45:49.072Z,19.30
2017-08-05T17:48:16.627Z,19.20
2017-08-05T17:50:44.117Z,19.30
2017-08-05T17:53:12.502Z,19.20
2017-08-05T17:55:40.045Z,19.30
2017-08-05T17:58:07.589Z,19.40
2017-08-05T18:00:35.133Z,19.40
2017-08-05T18:03:03.014Z,19.50
2017-08-05T18:05:30.525Z,19.50
2017-08-05T18:07:58.025Z,19.40
2017-08-05T18:10:25.618Z,19.10
2017-08-05T18:12:53.161Z,19.00
2017-08-05T18:15:20.712Z,18.90
2017-08-05T18:17:48.357Z,18.80
2017-08-05T18:20:16.629Z,18.60
2017-08-05T18:22:44.320Z,18.60
2017-08-05T18:25:11.937Z,18.60
2017-08-05T18:27:39.485Z,18.50
2017-08-05T18:30:06.992Z,18.50
2017-08-05T18:32:35.310Z,18.30
2017-08-05T18:35:03.035Z,18.30
2017-08-05T18:37:30.533Z,18.20
2017-08-05T18:39:58.128Z,18.20
2017-08-05T18:42:25.634Z,18.20
2017-08-05T18:44:53.921Z,18.10
2017-08-05T18:47:21.477Z,18.10
2017-08-05T18:49:49.020Z,18.10
2017-08-05T18:52:16.526Z,18.10
2017-08-05T18:54:44.053Z,18.10
2017-08-05T18:57:11.590Z,18.00
2017-08-05T18:59:39.081Z,17.90
2017-08-05T19:02:06.594Z,17.90
2017-08-05T19:04:34.178Z,17.90
2017-08-05T19:07:01.685Z,18.00
2017-08-05T19:09:29.985Z,18.00
2017-08-05T19:11:57.536Z,18.00
2017-08-05T19:14:25.096Z,18.10
2017-08-05T19:16:52.613Z,18.20
2017-08-05T19:19:20.140Z,18.20
2017-08-05T19:21:47.629Z,18.10
2017-08-05T19:24:15.154Z,18.00
2017-08-05T19:26:43.459Z,17.80
2017-08-05T19:29:10.996Z,17.80
2017-08-05T19:31:38.538Z,17.70
2017-08-05T19:34:06.050Z,17.60
2017-08-05T19:36:34.342Z,17.50
2017-08-05T19:39:01.854Z,17.40
2017-08-05T19:41:30.150Z,17.40
2017-08-05T19:43:57.688Z,17.40
2017-08-05T19:46:25.185Z,17.50
2017-08-05T19:48:52.782Z,17.50
2017-08-05T19:51:20.285Z,17.50
2017-08-05T19:53:48.585Z,17.50
2017-08-05T19:56:16.129Z,17.50
2017-08-05T19:58:43.677Z,17.50
2017-08-05T20:01:11.207Z,17.40
2017-08-05T20:03:38.696Z,17.30
2017-08-05T20:06:06.996Z,17.20
2017-08-05T20:08:35.364Z,17.00
2017-08-05T20:11:02.924Z,17.00
2017-08-05T20:13:30.421Z,17.00
2017-08-05T20:15:57.940Z,16.90
2017-08-05T20:18:27.489Z,16.90
2017-08-05T20:20:55.154Z,16.80
2017-08-05T20:23:22.649Z,16.80
2017-08-05T20:25:50.170Z,16.80
2017-08-05T20:28:17.665Z,16.90
2017-08-05T20:30:45.238Z,16.90
2017-08-05T20:33:12.765Z,16.80
2017-08-05T20:35:40.269Z,16.80
2017-08-05T20:38:07.789Z,16.80
2017-08-05T20:40:35.276Z,16.80
2017-08-05T20:43:03.561Z,16.90
2017-08-05T20:45:31.053Z,16.90
2017-08-05T20:47:58.595Z,16.90
2017-08-05T20:50:26.904Z,16.90
2017-08-05T20:52:54.423Z,16.80
2017-08-05T20:55:22.681Z,16.90
2017-08-05T20:57:50.210Z,16.90
2017-08-05T21:00:17.710Z,17.00
2017-08-05T21:02:45.216Z,17.00
2017-08-05T21:05:13.470Z,17.10
2017-08-05T21:07:41.753Z,17.10
2017-08-05T21:10:09.246Z,17.10
2017-08-05T21:12:36.733Z,17.10
2017-08-05T21:15:04.293Z,17.20
2017-08-05T21:17:31.857Z,17.10
2017-08-05T21:19:59.438Z,17.10
2017-08-05T21:22:26.994Z,17.00
2017-08-05T21:24:54.541Z,17.00
2017-08-05T21:27:22.033Z,16.90
2017-08-05T21:29:49.538Z,16.90
2017-08-05T21:32:17.073Z,16.90
2017-08-05T21:34:44.588Z,16.90
2017-08-05T21:37:12.845Z,16.90
2017-08-05T21:39:41.129Z,16.90
2017-08-05T21:42:08.677Z,16.90
2017-08-05T21:44:36.186Z,16.90
2017-08-05T21:47:04.481Z,16.90
2017-08-05T21:49:32.001Z,16.90
2017-08-05T21:52:00.256Z,16.90
2017-08-05T21:54:28.519Z,16.90
2017-08-05T21:56:56.805Z,16.80
2017-08-05T21:59:24.301Z,16.80
2017-08-05T22:01:51.895Z,16.80
2017-08-05T22:04:19.438Z,16.80
2017-08-05T22:06:46.986Z,16.80
2017-08-05T22:09:14.530Z,16.70
2017-08-05T22:11:42.862Z,16.70
2017-08-05T22:14:10.390Z,16.70
2017-08-05T22:16:37.926Z,16.60
2017-08-05T22:19:05.442Z,16.60
2017-08-05T22:21:32.982Z,16.50
2017-08-05T22:24:00.473Z,16.40
2017-08-05T22:26:27.993Z,16.30
2017-08-05T22:28:55.485Z,16.20
2017-08-05T22:31:23.736Z,16.10
2017-08-05T22:33:51.341Z,16.00
2017-08-05T22:36:18.829Z,16.00
2017-08-05T22:38:47.125Z,15.80
2017-08-05T22:41:14.609Z,15.70
2017-08-05T22:43:42.113Z,15.70
2017-08-05T22:46:09.598Z,15.50
2017-08-05T22:48:37.196Z,15.50
2017-08-05T22:51:04.743Z,15.50
2017-08-05T22:53:32.384Z,15.30
2017-08-05T22:55:59.877Z,15.30
2017-08-05T22:58:27.477Z,15.20
2017-08-05T23:00:55.044Z,15.20
2017-08-05T23:03:22.590Z,15.10
2017-08-05T23:05:50.121Z,15.00
2017-08-05T23:10:51.562Z,15.00
2017-08-05T23:13:19.096Z,14.90
2017-08-05T23:15:46.654Z,14.90
2017-08-05T23:18:14.177Z,14.80
2017-08-05T23:20:41.717Z,14.70
2017-08-05T23:23:09.209Z,14.60
2017-08-05T23:25:36.797Z,14.60
2017-08-05T23:28:04.450Z,14.60
2017-08-05T23:30:31.988Z,14.50
2017-08-05T23:32:59.474Z,14.50
2017-08-05T23:35:26.976Z,14.50
2017-08-05T23:37:54.521Z,14.40
2017-08-05T23:40:22.213Z,14.30
2017-08-05T23:42:49.697Z,14.30
2017-08-05T23:45:17.209Z,14.30
2017-08-05T23:47:44.697Z,14.30
2017-08-05T23:50:12.242Z,14.30
2017-08-05T23:52:39.790Z,14.30
2017-08-05T23:55:07.320Z,14.20
2017-08-05T23:57:34.813Z,14.20
